createdAt,value
2022-11-05T00:01:08.393Z,51.76
2022-11-05T00:06:30.605Z,53.04
2022-11-05T00:11:51.672Z,51.62
2022-11-05T00:16:56.342Z,51.72
2022-11-05T00:22:18.470Z,50.60
2022-11-05T00:27:21.880Z,50.67
2022-11-05T00:32:25.346Z,50.53
2022-11-05T00:37:30.255Z,50.88
2022-11-05T00:42:51.031Z,51.15
2022-11-05T00:48:12.112Z,50.35
2022-11-05T00:53:16.919Z,50.04
2022-11-05T00:58:21.881Z,50.01
2022-11-05T01:03:28.389Z,50.10
2022-11-05T01:08:33.249Z,50.12
2022-11-05T01:13:36.872Z,50.31
2022-11-05T01:18:40.452Z,49.79
2022-11-05T01:23:45.230Z,49.79
2022-11-05T01:28:51.787Z,49.27
2022-11-05T01:33:55.281Z,49.88
2022-11-05T01:39:00.044Z,49.60
2022-11-05T01:44:03.481Z,50.33
2022-11-05T01:49:11.791Z,49.93
2022-11-05T01:54:19.479Z,49.43
2022-11-05T01:59:26.053Z,49.55
2022-11-05T02:04:32.998Z,49.29
2022-11-05T02:09:42.226Z,49.55
2022-11-05T02:14:45.596Z,49.04
2022-11-05T02:20:14.589Z,49.48
2022-11-05T02:25:31.240Z,50.34
2022-11-05T02:30:43.518Z,51.46
2022-11-05T02:36:23.737Z,50.95
2022-11-05T02:41:32.967Z,50.78
2022-11-05T02:46:45.039Z,50.23
2022-11-05T02:51:53.218Z,49.70
2022-11-05T02:56:58.228Z,49.90
2022-11-05T03:02:03.709Z,49.71
2022-11-05T03:07:20.501Z,49.40
2022-11-05T03:12:31.976Z,49.32
2022-11-05T03:17:39.484Z,49.67
2022-11-05T03:22:46.959Z,50.46
2022-11-05T03:27:54.867Z,50.47
2022-11-05T03:33:01.431Z,51.18
2022-11-05T03:38:08.393Z,50.46
2022-11-05T03:43:13.061Z,50.78
2022-11-05T03:48:19.849Z,50.44
2022-11-05T03:53:25.554Z,49.94
2022-11-05T03:58:30.219Z,49.85
2022-11-05T04:03:36.549Z,49.51
2022-11-05T04:08:57.688Z,49.58
2022-11-05T04:14:01.161Z,49.58
2022-11-05T04:19:06.080Z,49.44
2022-11-05T04:24:16.384Z,49.08
2022-11-05T04:29:37.216Z,49.05
2022-11-05T04:34:42.019Z,49.11
2022-11-05T04:39:45.395Z,48.90
2022-11-05T04:44:48.794Z,48.94
2022-11-05T04:49:53.547Z,48.91
2022-11-05T04:54:57.216Z,49.52
2022-11-05T05:00:00.651Z,48.99
2022-11-05T05:05:06.011Z,48.90
2022-11-05T05:10:10.336Z,49.15
2022-11-05T05:15:13.779Z,49.33
2022-11-05T05:20:35.951Z,49.51
2022-11-05T05:25:39.372Z,48.98
2022-11-05T05:30:42.748Z,48.63
2022-11-05T05:35:47.530Z,49.32
2022-11-05T05:40:51.072Z,48.91
2022-11-05T05:45:54.597Z,48.90
2022-11-05T05:51:02.799Z,48.90
2022-11-05T05:56:06.974Z,48.67
2022-11-05T06:01:18.265Z,48.85
2022-11-05T06:06:23.985Z,49.04
2022-11-05T06:11:27.376Z,48.95
2022-11-05T06:16:35.405Z,49.74
2022-11-05T06:21:40.228Z,49.94
2022-11-05T06:26:44.976Z,50.24
2022-11-05T06:31:48.419Z,50.65
2022-11-05T06:36:53.220Z,50.71
2022-11-05T06:42:17.149Z,50.90
2022-11-05T06:47:20.152Z,51.54
2022-11-05T06:52:27.100Z,52.04
2022-11-05T06:57:30.625Z,51.88
2022-11-05T07:02:34.024Z,52.23
2022-11-05T07:07:38.961Z,53.15
2022-11-05T07:12:42.361Z,53.08
2022-11-05T07:17:45.771Z,52.97
2022-11-05T07:22:50.673Z,52.87
2022-11-05T07:27:54.079Z,53.27
2022-11-05T07:32:57.892Z,53.29
2022-11-05T07:38:02.837Z,53.17
2022-11-05T07:43:06.355Z,53.88
2022-11-05T07:48:10.992Z,53.30
2022-11-05T07:53:15.838Z,53.56
2022-11-05T07:58:19.437Z,53.53
2022-11-05T08:03:22.944Z,53.17
2022-11-05T08:08:27.805Z,53.49
2022-11-05T08:13:36.212Z,53.43
2022-11-05T08:18:39.618Z,53.16
2022-11-05T08:23:44.351Z,53.28
2022-11-05T08:28:47.716Z,53.08
2022-11-05T08:33:51.068Z,52.95
2022-11-05T08:38:56.226Z,52.47
2022-11-05T08:43:59.605Z,52.69
2022-11-05T08:49:03.118Z,52.55
2022-11-05T08:54:08.245Z,53.19
2022-11-05T08:59:11.631Z,52.03
2022-11-05T09:04:14.991Z,51.56
2022-11-05T09:09:19.784Z,51.41
2022-11-05T09:14:23.177Z,50.91
2022-11-05T09:19:26.558Z,50.72
2022-11-05T09:24:31.269Z,50.37
2022-11-05T09:29:34.712Z,49.52
2022-11-05T09:34:38.098Z,49.16
2022-11-05T09:39:42.893Z,49.01
2022-11-05T09:44:49.031Z,49.14
2022-11-05T09:49:53.657Z,48.42
2022-11-05T09:54:58.766Z,47.50
2022-11-05T10:00:05.382Z,48.36
2022-11-05T10:05:12.771Z,47.30
2022-11-05T10:10:28.125Z,46.64
2022-11-05T10:15:33.445Z,45.74
2022-11-05T10:20:38.754Z,45.50
2022-11-05T10:25:46.476Z,45.48
2022-11-05T10:30:51.432Z,46.21
2022-11-05T10:35:57.135Z,45.70
2022-11-05T10:41:11.016Z,45.30
2022-11-05T10:46:25.076Z,44.88
2022-11-05T10:51:28.574Z,43.98
2022-11-05T10:56:35.709Z,43.78
2022-11-05T11:01:39.201Z,43.72
2022-11-05T11:06:49.635Z,43.73
2022-11-05T11:12:01.855Z,42.96
2022-11-05T11:17:26.657Z,42.42
2022-11-05T11:22:30.172Z,41.60
2022-11-05T11:27:35.691Z,42.32
2022-11-05T11:32:40.457Z,41.84
2022-11-05T11:37:43.933Z,41.49
2022-11-05T11:42:50.383Z,41.70
2022-11-05T11:47:55.980Z,40.95
2022-11-05T11:53:17.737Z,40.07
2022-11-05T11:58:23.491Z,40.02
2022-11-05T12:03:32.358Z,40.71
2022-11-05T12:08:45.870Z,41.00
2022-11-05T12:14:11.125Z,40.73
2022-11-05T12:19:23.897Z,39.77
2022-11-05T12:24:54.855Z,39.58
2022-11-05T12:30:04.483Z,38.62
2022-11-05T12:35:19.272Z,38.84
2022-11-05T12:40:36.685Z,38.47
2022-11-05T12:45:46.810Z,38.52
2022-11-05T12:50:53.441Z,38.18
2022-11-05T12:55:59.081Z,37.63
2022-11-05T13:01:06.025Z,37.43
2022-11-05T13:06:13.560Z,37.83
2022-11-05T13:11:21.545Z,37.69
2022-11-05T13:16:30.577Z,37.14
2022-11-05T13:21:36.013Z,36.73
2022-11-05T13:26:44.542Z,36.73
2022-11-05T13:31:54.149Z,35.75
2022-11-05T13:37:16.948Z,36.55
2022-11-05T13:42:52.645Z,36.21
2022-11-05T13:48:25.339Z,35.87
2022-11-05T13:53:42.745Z,35.94
2022-11-05T13:59:07.792Z,36.07
2022-11-05T14:04:21.586Z,35.68
2022-11-05T14:09:27.362Z,35.32
2022-11-05T14:14:35.104Z,35.90
2022-11-05T14:19:52.288Z,36.61
2022-11-05T14:24:55.722Z,36.69
2022-11-05T14:29:59.162Z,37.23
2022-11-05T14:35:06.088Z,37.56
2022-11-05T14:40:31.933Z,37.31
2022-11-05T14:45:37.512Z,37.54
2022-11-05T14:50:43.103Z,38.02
2022-11-05T14:55:46.480Z,38.45
2022-11-05T15:00:50.230Z,38.18
2022-11-05T15:06:05.574Z,38.34
2022-11-05T15:11:14.054Z,38.39
2022-11-05T15:16:21.861Z,38.50
2022-11-05T15:21:27.012Z,38.88
2022-11-05T15:26:38.990Z,38.78
2022-11-05T15:31:45.208Z,38.91
2022-11-05T15:36:54.279Z,39.30
2022-11-05T15:41:58.295Z,39.06
2022-11-05T15:47:20.397Z,39.11
2022-11-05T15:52:31.600Z,39.44
2022-11-05T15:57:39.910Z,39.74
2022-11-05T16:02:44.162Z,40.19
2022-11-05T16:07:49.321Z,40.45
2022-11-05T16:12:52.873Z,39.95
2022-11-05T16:17:57.460Z,40.02
2022-11-05T16:23:03.622Z,40.09
2022-11-05T16:28:16.732Z,40.32
2022-11-05T16:33:20.164Z,40.42
2022-11-05T16:38:25.217Z,40.37
2022-11-05T16:43:28.616Z,40.96
2022-11-05T16:48:32.013Z,41.11
2022-11-05T16:53:37.672Z,41.21
2022-11-05T16:58:41.203Z,41.30
2022-11-05T17:03:45.199Z,41.40
2022-11-05T17:08:50.101Z,42.05
2022-11-05T17:13:53.493Z,42.49
2022-11-05T17:18:57.231Z,41.87
2022-11-05T17:24:01.999Z,42.09
2022-11-05T17:29:05.808Z,41.38
2022-11-05T17:34:10.454Z,41.63
2022-11-05T17:39:15.228Z,41.74
2022-11-05T17:44:18.643Z,41.58
2022-11-05T17:49:22.058Z,41.56
2022-11-05T17:54:26.925Z,41.38
2022-11-05T17:59:30.602Z,41.05
2022-11-05T18:04:34.075Z,41.27
2022-11-05T18:09:38.820Z,41.35
2022-11-05T18:14:42.245Z,41.49
2022-11-05T18:19:46.073Z,41.56
2022-11-05T18:24:50.931Z,42.25
2022-11-05T18:29:54.877Z,41.39
2022-11-05T18:34:58.314Z,41.63
2022-11-05T18:40:03.127Z,41.17
2022-11-05T18:45:07.795Z,40.96
2022-11-05T18:50:11.324Z,41.05
2022-11-05T18:55:16.214Z,40.97
2022-11-05T19:00:20.175Z,40.91
2022-11-05T19:05:30.888Z,40.80
2022-11-05T19:10:35.724Z,40.87
2022-11-05T19:15:42.671Z,40.82
2022-11-05T19:20:46.218Z,40.54
2022-11-05T19:25:51.303Z,40.51
2022-11-05T19:30:54.720Z,40.69
2022-11-05T19:35:58.513Z,40.65
2022-11-05T19:41:07.877Z,40.24
2022-11-05T19:46:16.180Z,40.60
2022-11-05T19:51:20.883Z,40.59
2022-11-05T19:56:26.797Z,40.55
2022-11-05T20:01:31.486Z,40.51
2022-11-05T20:06:38.579Z,40.57
2022-11-05T20:11:44.974Z,40.60
2022-11-05T20:16:48.504Z,40.36
2022-11-05T20:21:52.190Z,40.78
2022-11-05T20:26:57.579Z,40.86
2022-11-05T20:32:02.020Z,40.71
2022-11-05T20:37:05.528Z,40.74
2022-11-05T20:42:10.329Z,40.57
2022-11-05T20:47:13.799Z,41.08
2022-11-05T20:52:17.295Z,40.92
2022-11-05T20:57:22.311Z,40.91
2022-11-05T21:02:25.881Z,41.10
2022-11-05T21:07:29.411Z,41.13
2022-11-05T21:12:34.218Z,41.21
2022-11-05T21:17:37.799Z,41.25
2022-11-05T21:22:43.038Z,40.69
2022-11-05T21:27:47.777Z,40.59
2022-11-05T21:32:51.238Z,40.70
2022-11-05T21:37:54.690Z,41.09
2022-11-05T21:42:59.531Z,41.00
2022-11-05T21:48:02.915Z,41.14
2022-11-05T21:53:23.604Z,40.95
2022-11-05T21:58:45.859Z,40.88
2022-11-05T22:03:49.288Z,41.01
2022-11-05T22:08:52.676Z,41.12
2022-11-05T22:13:57.503Z,41.36
2022-11-05T22:19:00.902Z,41.93
2022-11-05T22:24:04.668Z,41.74
2022-11-05T22:29:09.561Z,41.56
2022-11-05T22:34:13.318Z,41.75
2022-11-05T22:39:16.776Z,41.43
2022-11-05T22:44:21.793Z,41.79
2022-11-05T22:49:25.249Z,42.05
2022-11-05T22:54:28.885Z,42.45
2022-11-05T22:59:33.713Z,42.41
2022-11-05T23:04:37.319Z,42.96
2022-11-05T23:09:58.121Z,42.68
2022-11-05T23:15:05.587Z,42.89
2022-11-05T23:20:30.172Z,43.33
2022-11-05T23:25:33.560Z,43.54
2022-11-05T23:31:00.139Z,43.62
2022-11-05T23:36:21.460Z,43.51
2022-11-05T23:41:42.338Z,43.82
2022-11-05T23:47:04.445Z,43.71
2022-11-05T23:52:07.828Z,43.87
2022-11-05T23:57:11.229Z,43.86
